• Join FlightAware (Why Join?)
  • Login
  • US Flag 
11:34PM EDT


 

Airport Tracker/Info


-or-


 

Live Flight TrackerFlight Track Log ✈ N42HN ✈ 28-Aug-2013 ✈ KHOU - KDAY

Flight Track Log - Related Links

Times and Time Zones

All times are in EDT time to prevent confusion due to time zone crossing. See the N42HN flight status page for this flight to view local times or setup timezone preferences in your user account.

Time Position Orientation Groundspeed Altitude Reporting Facility
EDT Latitude Longitude Course Direction KTS MPH feet Rate Location/Type
03:00PM 29.6644 -95.2617 354° North 199 229 800  Level Houston Center
03:00PM 29.7047 -95.2664 354° North 213 245 2,900 3,300 Climbing Houston Center
03:01PM 29.7650 -95.2831 347° North 230 265 6,600 3,180 Climbing Houston Center
03:03PM 29.8325 -95.3086 342° North 255 293 9,400 2,400 Climbing Houston Center
03:04PM 29.9261 -95.2725 18° North 280 322 12,400 2,100 Climbing Houston Center
03:05PM 30.0022 -95.2308 25° Northeast 298 343 14,500 1,980 Climbing Houston Center
03:06PM 30.0728 -95.1678 38° Northeast 317 365 16,500 1,800 Climbing Houston Center
03:07PM 30.1422 -95.0978 41° Northeast 328 377 18,300 1,680 Climbing Houston Center
03:08PM 30.2164 -95.0319 37° Northeast 335 386 20,000 1,800 Climbing Houston Center
03:09PM 30.3044 -94.9433 41° Northeast 348 400 22,100 1,860 Climbing Houston Center
03:10PM 30.3808 -94.8739 38° Northeast 350 403 23,900 1,560 Climbing Houston Center
03:11PM 30.4542 -94.7981 42° Northeast 351 404 25,400 1,320 Climbing Houston Center
03:12PM 30.5336 -94.7283 37° Northeast 359 413 26,700 960 Climbing Houston Center
03:13PM 30.6119 -94.6483 41° Northeast 371 427 27,500 840 Climbing Houston Center
03:14PM 30.6953 -94.5722 38° Northeast 381 438 28,500 1,200 Climbing Houston Center
03:15PM 30.7939 -94.4767 40° Northeast 385 443 30,000 1,200 Climbing Houston Center
03:16PM 30.8750 -94.3975 40° Northeast 384 442 31,100 840 Climbing Houston Center
03:17PM 30.9586 -94.3200 38° Northeast 386 444 31,800 660 Climbing Houston Center
03:18PM 31.0414 -94.2347 41° Northeast 397 457 32,500 780 Climbing Houston Center
03:19PM 31.1300 -94.1528 38° Northeast 406 467 33,400 960 Climbing Houston Center
03:20PM 31.2331 -94.0506 40° Northeast 406 467 34,500 1,020 Climbing Houston Center
03:21PM 31.3186 -93.9667 40° Northeast 403 464 35,600 960 Climbing Houston Center
03:22PM 31.4036 -93.8842 40° Northeast 399 459 36,600 840 Climbing Houston Center
03:23PM 31.4858 -93.8025 40° Northeast 391 450 37,400 720 Climbing Houston Center
03:25PM 31.5706 -93.7203 40° Northeast 395 455 38,100 540 Climbing Houston Center
03:26PM 31.6536 -93.6356 41° Northeast 396 456 38,600 420 Climbing Houston Center
03:27PM 31.7492 -93.5442 39° Northeast 401 461 39,000 180 Climbing Houston Center
03:28PM 31.8336 -93.4581 41° Northeast 402 463 39,000  Level Houston Center
03:29PM 31.9208 -93.3711 40° Northeast 407 468 39,000  Level Houston Center
03:30PM 32.0083 -93.2847 40° Northeast 409 471 39,000  Level Houston Center
03:31PM 32.1111 -93.1778 41° Northeast 411 473 39,000  Level Houston Center
03:31PM 32.1714 -93.1186 40° Northeast 407 468 39,000  Level Fort Worth Center
03:32PM 32.2583 -93.0358 39° Northeast 407 468 39,000  Level Fort Worth Center
03:33PM 32.3453 -92.9506 40° Northeast 407 468 39,000  Level Fort Worth Center
03:34PM 32.4314 -92.8503 44° Northeast 416 479 39,000  Level Fort Worth Center
03:36PM 32.5747 -92.7092 40° Northeast 428 493 39,000  Level Memphis Center
03:37PM 32.6619 -92.6200 41° Northeast 417 480 39,000  Level Memphis Center
03:38PM 32.7492 -92.5333 40° Northeast 417 480 39,000  Level Memphis Center
03:39PM 32.8406 -92.4417 40° Northeast 412 474 39,000  Level Memphis Center
03:40PM 32.9256 -92.3497 42° Northeast 412 474 39,000  Level Memphis Center
03:41PM 33.0186 -92.2600 39° Northeast 412 474 39,000  Level Memphis Center
03:42PM 33.1078 -92.1653 42° Northeast 412 474 39,000  Level Memphis Center
03:43PM 33.1989 -92.0753 40° Northeast 412 474 39,000  Level Memphis Center
03:44PM 33.2856 -91.9825 42° Northeast 412 474 39,000  Level Memphis Center
03:45PM 33.3786 -91.8897 40° Northeast 417 480 39,000  Level Memphis Center
03:46PM 33.4694 -91.7942 41° Northeast 417 480 39,000  Level Memphis Center
03:47PM 33.5372 -91.7206 42° Northeast 417 480 39,000  Level Memphis Center
03:48PM 33.6342 -91.6147 42° Northeast 417 480 39,000  Level Memphis Center
03:49PM 33.7250 -91.5186 41° Northeast 422 486 39,000  Level Memphis Center
03:50PM 33.8133 -91.4247 41° Northeast 422 486 39,000  Level Memphis Center
03:51PM 33.9039 -91.3283 41° Northeast 422 486 39,000  Level Memphis Center
03:52PM 34.0028 -91.2292 40° Northeast 422 486 39,000  Level Memphis Center
03:53PM 34.0911 -91.1297 43° Northeast 422 486 39,000  Level Memphis Center
03:54PM 34.1833 -91.0375 40° Northeast 422 486 39,000  Level Memphis Center
03:55PM 34.2694 -90.9403 43° Northeast 422 486 39,000  Level Memphis Center
03:56PM 34.3617 -90.8453 40° Northeast 427 491 39,000  Level Memphis Center
03:57PM 34.4497 -90.7475 42° Northeast 427 491 39,000  Level Memphis Center
03:58PM 34.5375 -90.6522 42° Northeast 422 486 39,000  Level Memphis Center
03:59PM 34.6275 -90.5564 41° Northeast 422 486 39,000  Level Memphis Center
04:00PM 34.7153 -90.4608 42° Northeast 422 486 39,000  Level Memphis Center
04:01PM 34.7967 -90.3747 41° Northeast 422 486 39,000  Level Memphis Center
04:02PM 34.8842 -90.2786 42° Northeast 422 486 39,000  Level Memphis Center
04:03PM 34.9739 -90.1822 41° Northeast 422 486 39,000  Level Memphis Center
04:04PM 35.0633 -90.0831 42° Northeast 422 486 39,000  Level Memphis Center
04:05PM 35.1592 -89.9761 42° Northeast 422 486 39,000  Level Memphis Center
04:06PM 35.2483 -89.8764 42° Northeast 427 491 39,000  Level Memphis Center
04:07PM 35.3356 -89.7767 43° Northeast 427 491 39,000  Level Memphis Center
04:08PM 35.4228 -89.6767 43° Northeast 421 484 39,000  Level Memphis Center
04:09PM 35.5139 -89.5764 42° Northeast 426 490 39,000  Level Memphis Center
04:10PM 35.6008 -89.4786 42° Northeast 419 482 39,000  Level Memphis Center
04:11PM 35.6794 -89.3908 42° Northeast 419 482 39,000  Level Memphis Center
04:12PM 35.7600 -89.2903 45° Northeast 419 482 39,000  Level Memphis Center
04:13PM 35.8486 -89.1917 42° Northeast 419 482 39,000  Level Memphis Center
04:14PM 35.9372 -89.0906 43° Northeast 424 488 39,000  Level Memphis Center
04:15PM 36.0361 -88.9786 42° Northeast 424 488 39,000  Level Memphis Center
04:16PM 36.1247 -88.8794 42° Northeast 424 488 39,000  Level Memphis Center
04:17PM 36.2111 -88.7750 44° Northeast 424 488 39,000  Level Memphis Center
04:18PM 36.3014 -88.6781 41° Northeast 424 488 39,000  Level Memphis Center
04:19PM 36.3875 -88.5756 44° Northeast 424 488 39,000  Level Memphis Center
04:20PM 36.4800 -88.4756 41° Northeast 424 488 39,000  Level Memphis Center
04:21PM 36.5658 -88.3728 44° Northeast 424 488 39,000  Level Memphis Center
04:22PM 36.6539 -88.2722 42° Northeast 424 488 39,000  Level Memphis Center
04:23PM 36.7397 -88.1717 43° Northeast 424 488 39,000  Level Memphis Center
04:24PM 36.8192 -88.0789 43° Northeast 424 488 39,000  Level Memphis Center
04:25PM 36.9089 -87.9750 43° Northeast 430 495 39,000  Level Memphis Center
04:27PM 37.0558 -87.7958 44° Northeast 439 505 39,000  Level Indianapolis Center
04:28PM 37.1456 -87.6892 43° Northeast 439 505 39,000  Level Indianapolis Center
04:29PM 37.2339 -87.5844 43° Northeast 434 499 39,000  Level Indianapolis Center
04:30PM 37.3372 -87.4581 44° Northeast 437 503 39,000  Level Indianapolis Center
04:31PM 37.4264 -87.3536 43° Northeast 434 499 39,000  Level Indianapolis Center
04:32PM 37.5142 -87.2447 45° Northeast 437 503 39,000  Level Indianapolis Center
04:33PM 37.6058 -87.1364 43° Northeast 437 503 39,000  Level Indianapolis Center
04:34PM 37.6922 -87.0311 44° Northeast 433 498 39,000  Level Indianapolis Center
04:35PM 37.7803 -86.9242 44° Northeast 437 503 39,000 -420 Level Indianapolis Center
04:36PM 37.8694 -86.8181 43° Northeast 443 510 38,200 -1,020 Descending Indianapolis Center
04:37PM 37.9769 -86.6822 45° Northeast 457 526 36,900 -1,380 Descending Indianapolis Center
04:38PM 38.0664 -86.5731 44° Northeast 451 519 35,400 -1,260 Descending Indianapolis Center
04:39PM 38.1542 -86.4667 44° Northeast 443 510 34,300 -1,080 Descending Indianapolis Center
04:40PM 38.2367 -86.3603 45° Northeast 426 490 33,200 -1,380 Descending Indianapolis Center
04:41PM 38.3244 -86.2567 43° Northeast 431 496 31,500 -1,680 Descending Indianapolis Center
04:42PM 38.4106 -86.1453 45° Northeast 441 507 29,800 -1,440 Descending Indianapolis Center
04:43PM 38.5167 -86.0158 44° Northeast 436 502 28,600 -1,200 Descending Indianapolis Center
04:44PM 38.6019 -85.9072 45° Northeast 432 497 27,400 -1,380 Descending Indianapolis Center
04:45PM 38.6844 -85.8031 45° Northeast 433 498 25,800 -1,680 Descending Indianapolis Center
04:46PM 38.7714 -85.6944 44° Northeast 438 504 24,000 -1,020 Descending Indianapolis Center
04:47PM 38.8553 -85.5844 46° Northeast 436 502 23,800 -1,080 Descending Indianapolis Center
04:48PM 38.9578 -85.4569 44° Northeast 434 499 21,800 -2,040 Descending Indianapolis Center
04:49PM 39.0431 -85.3439 46° Northeast 441 507 19,700 -1,800 Descending Indianapolis Center
04:50PM 39.1278 -85.2369 44° Northeast 434 499 18,200 -1,740 Descending Indianapolis Center
04:52PM 39.2064 -85.1328 46° Northeast 416 479 16,200 -1,980 Descending Indianapolis Center
04:53PM 39.2828 -85.0339 45° Northeast 398 458 14,200 -2,040 Descending Indianapolis Center
04:54PM 39.3656 -84.9283 45° Northeast 347 399 12,200 -2,040 Descending Indianapolis Center
04:55PM 39.4292 -84.8519 43° Northeast 321 369 10,100 -2,220 Descending Indianapolis Center
04:56PM 39.4833 -84.7781 46° Northeast 302 348 7,600 -1,500 Descending Indianapolis Center
04:57PM 39.5228 -84.6864 61° Northeast 296 341 7,000 -300 Descending Indianapolis Center
04:58PM 39.5664 -84.5975 58° Northeast 294 338 7,000  Level Indianapolis Center
04:59PM 39.6200 -84.5003 54° Northeast 285 328 7,000 -120 Level Indianapolis Center
05:00PM 39.6614 -84.4139 58° Northeast 283 326 6,800 -480 Descending Indianapolis Center
05:01PM 39.7114 -84.3119 57° Northeast 285 328 6,000 -420 Descending Indianapolis Center
05:02PM 39.7422 -84.2411 60° Northeast 284 327 6,000  Level Indianapolis Center
05:03PM 39.8050 -84.1242 55° Northeast 277 319 6,000 -240 Level Indianapolis Center
05:04PM 39.8378 -84.0536 59° Northeast 273 314 5,500 -840 Descending Indianapolis Center
05:05PM 39.8867 -83.9886 46° Northeast 246 283 4,500 -900 Descending Indianapolis Center
05:06PM 39.9514 -83.9917 358° North 179 206 3,600 -840 Descending Indianapolis Center
05:07PM 39.9794 -84.0267 316° Northwest 194 223 2,900 -540 Descending Indianapolis Center
05:08PM 39.9575 -84.0939 247° West 173 199 2,600 -360 Descending Indianapolis Center
05:09PM 39.9358 -84.1394 238° Southwest 152 175 2,200 -600 Descending Indianapolis Center
05:10PM 39.9125 -84.1817 234° Southwest 131 151 1,400 -720 Descending Indianapolis Center